Terminal Aerodrome Forecast
Issued by NWS

Current Version | Previous Version | Text Only | Print | Product List | Glossary On
Versions: 1 2 3 4 5 6 7 8 9 10 11 12 13 14 15
000
FTUS46 KSEW 302300
TAFBLI
TAF
KBLI 302339Z 3100/3124 03005KT 6SM -RA BR SCT025 OVC035
     FM310400 VRB04KT 5SM -RA BR SCT015 OVC030
     FM310900 VRB04KT 5SM -RA BR SCT009 OVC015
     FM311600 18005KT P6SM -SHRA BKN018 BKN035
     FM312000 18005KT P6SM VCSH BKN035=

USA.gov is the U.S. government's official web portal to all federal, state and local government web resources and services.